Time;durP1;ratioP1;P1;durP2;ratioP2;P2;SDS_P1;SDS_P2;PMS_P1;PMS_P2;Temp;Humidity;BMP_temperature;BMP_pressure;BME280_temperature;BME280_humidity;BME280_pressure;Samples;Min_cycle;Max_cycle;Signal;HPM_P1;HPM_P2
2022/10/27 00:04:49;;;;;;;;;;;;;;;19.61;53.41;96524.56;10536066;28;955;-54
2022/10/27 00:09:49;;;;;;;;;;;;;;;19.61;53.48;96524.56;10533632;28;1695;-53
2022/10/27 00:14:49;;;;;;;;;;;;;;;19.61;53.61;96522.72;10532954;28;1444;-54
2022/10/27 00:19:50;;;;;;;;;;;;;;;19.59;53.64;96524.00;10535096;28;1914;-54
2022/10/27 00:24:52;;;;;;;;;;;;;;;19.60;53.60;96515.09;10533318;28;1611;-52
2022/10/27 00:29:52;;;;;;;;;;;;;;;19.59;53.51;96521.38;10527572;28;1508;-50
2022/10/27 00:34:53;;;;;;;;;;;;;;;19.60;53.51;96513.22;10535816;28;1204;-49
2022/10/27 00:39:53;;;;;;;;;;;;;;;19.59;53.59;96516.13;10535209;28;1970;-53
2022/10/27 00:44:53;;;;;;;;;;;;;;;19.59;53.58;96526.63;10542950;28;1808;-49
2022/10/27 00:49:56;;;;;;;;;;;;;;;19.58;53.41;96535.59;10540765;28;1021;-50
2022/10/27 00:54:58;;;;;;;;;;;;;;;19.59;53.57;96531.91;10542000;28;1714;-52
2022/10/27 00:59:58;;;;;;;;;;;;;;;19.59;53.45;96529.28;10534295;28;1974;-52
2022/10/27 01:05:00;;;;;;;;;;;;;;;19.60;53.45;96533.50;10543038;28;827;-51
2022/10/27 01:10:00;;;;;;;;;;;;;;;19.56;53.38;96533.19;10538594;28;1722;-52
2022/10/27 01:15:00;;;;;;;;;;;;;;;19.59;53.42;96535.34;10542652;28;1372;-52
2022/10/27 01:20:01;;;;;;;;;;;;;;;19.57;53.17;96536.63;10545678;28;1917;-49
2022/10/27 01:25:04;;;;;;;;;;;;;;;19.59;53.28;96526.63;10542381;28;1039;-53
2022/10/27 01:30:07;;;;;;;;;;;;;;;19.59;53.58;96526.63;10540178;28;1662;-51
2022/10/27 01:35:26;;;;;;;;;;;;;;;19.57;53.42;96518.22;10545944;28;1187;-50
2022/10/27 01:40:27;;;;;;;;;;;;;;;19.59;53.35;96530.06;10532947;28;1977;-51
2022/10/27 01:45:28;;;;;;;;;;;;;;;19.59;53.30;96534.53;10543155;28;967;-48
2022/10/27 01:50:30;;;;;;;;;;;;;;;19.59;53.20;96526.63;10538307;28;1814;-53
2022/10/27 01:55:34;;;;;;;;;;;;;;;19.57;53.35;96523.47;10535017;28;1615;-50
2022/10/27 02:00:37;;;;;;;;;;;;;;;19.54;53.36;96519.50;10535596;28;1901;-51
2022/10/27 02:05:42;;;;;;;;;;;;;;;19.59;53.27;96524.81;10543545;28;857;-53
2022/10/27 02:10:46;;;;;;;;;;;;;;;19.57;53.41;96528.72;10536688;28;994;-51
2022/10/27 02:15:57;;;;;;;;;;;;;;;19.57;53.29;96536.63;10538908;28;1913;-53
2022/10/27 02:20:58;;;;;;;;;;;;;;;19.57;53.36;96539.25;10569834;27;1057;-51
2022/10/27 02:25:58;;;;;;;;;;;;;;;19.59;53.05;96537.97;10534843;28;1631;-53
2022/10/27 02:30:59;;;;;;;;;;;;;;;19.59;53.28;96537.16;10531847;28;1464;-52
2022/10/27 02:35:59;;;;;;;;;;;;;;;19.58;53.20;96538.22;10536975;28;1973;-54
2022/10/27 02:41:00;;;;;;;;;;;;;;;19.58;52.99;96539.00;10554646;28;1107;-53
2022/10/27 02:46:00;;;;;;;;;;;;;;;19.58;53.05;96532.97;10537936;28;1667;-50
2022/10/27 02:51:00;;;;;;;;;;;;;;;19.56;53.04;96533.19;10538310;28;1167;-49
2022/10/27 02:56:01;;;;;;;;;;;;;;;19.56;53.17;96535.03;10532627;28;1972;-51
2022/10/27 03:01:01;;;;;;;;;;;;;;;19.59;53.18;96537.97;10536768;28;1472;-50
2022/10/27 03:06:02;;;;;;;;;;;;;;;19.57;53.17;96536.63;10538471;28;1027;-52
2022/10/27 03:11:02;;;;;;;;;;;;;;;19.57;53.04;96544.50;10536425;28;1682;-51
2022/10/27 03:16:02;;;;;;;;;;;;;;;19.57;53.21;96539.25;10534769;28;1906;-52
2022/10/27 03:21:02;;;;;;;;;;;;;;;19.58;53.18;96535.59;10537431;28;1100;-51
2022/10/27 03:26:03;;;;;;;;;;;;;;;19.56;53.02;96533.19;10531224;28;1608;-49
2022/10/27 03:31:03;;;;;;;;;;;;;;;19.55;52.91;96536.06;10530096;28;1671;-49
2022/10/27 03:36:04;;;;;;;;;;;;;;;19.53;53.29;96525.81;10535707;28;1923;-49
2022/10/27 03:41:05;;;;;;;;;;;;;;;19.53;53.08;96538.16;10536932;28;1084;-51
2022/10/27 03:46:05;;;;;;;;;;;;;;;19.55;53.04;96528.97;10532545;28;1647;-51
2022/10/27 03:51:15;;;;;;;;;;;;;;;19.54;53.31;96537.91;10533151;28;1756;-51
2022/10/27 03:56:16;;;;;;;;;;;;;;;19.56;53.17;96532.41;10535711;28;1985;-51
2022/10/27 04:01:16;;;;;;;;;;;;;;;19.53;53.16;96532.91;10529808;28;1701;-49
2022/10/27 04:06:16;;;;;;;;;;;;;;;19.52;53.17;96547.88;10532274;28;1536;-52
2022/10/27 04:11:16;;;;;;;;;;;;;;;19.55;53.08;96557.09;10534668;28;1081;-51
2022/10/27 04:16:17;;;;;;;;;;;;;;;19.57;53.07;96549.75;10536710;28;1906;-48
2022/10/27 04:21:17;;;;;;;;;;;;;;;19.53;52.86;96553.94;10541097;28;1174;-50
2022/10/27 04:26:17;;;;;;;;;;;;;;;19.53;52.92;96559.19;10527453;28;1661;-51
2022/10/27 04:31:18;;;;;;;;;;;;;;;19.52;53.05;96563.66;10534428;28;1548;-51
2022/10/27 04:36:18;;;;;;;;;;;;;;;19.55;52.93;96557.09;10533769;28;1993;-52
2022/10/27 04:41:18;;;;;;;;;;;;;;;19.56;53.05;96569.22;10534921;28;979;-50
2022/10/27 04:46:19;;;;;;;;;;;;;;;19.55;52.98;96563.16;10533816;28;1627;-49
2022/10/27 04:51:19;;;;;;;;;;;;;;;19.52;52.98;96554.97;10530070;28;1619;-49
2022/10/27 04:56:19;;;;;;;;;;;;;;;19.53;52.78;96561.81;10533062;28;1973;-50
2022/10/27 05:01:20;;;;;;;;;;;;;;;19.51;53.01;96564.72;10527013;28;1591;-47
2022/10/27 05:06:20;;;;;;;;;;;;;;;19.53;53.01;96569.72;10533879;28;1615;-51
2022/10/27 05:11:20;;;;;;;;;;;;;;;19.51;52.80;96564.72;10527236;28;1006;-50
2022/10/27 05:16:21;;;;;;;;;;;;;;;19.51;52.92;96563.91;10527191;28;1906;-50
2022/10/27 05:21:21;;;;;;;;;;;;;;;19.52;52.71;96560.22;10534360;28;1121;-48
2022/10/27 05:26:25;;;;;;;;;;;;;;;19.54;53.02;96555.53;10542696;28;1611;-51
2022/10/27 05:31:26;;;;;;;;;;;;;;;19.52;52.75;96561.03;10535331;28;1760;-49
2022/10/27 05:36:26;;;;;;;;;;;;;;;19.52;52.93;96560.22;10539174;28;1961;-49
2022/10/27 05:41:26;;;;;;;;;;;;;;;19.49;52.92;96564.94;10550733;28;1175;-51
2022/10/27 05:46:27;;;;;;;;;;;;;;;19.51;52.87;96569.16;10543962;28;1770;-53
2022/10/27 05:51:27;;;;;;;;;;;;;;;19.52;52.96;96573.38;10541586;28;1194;-51
2022/10/27 05:56:27;;;;;;;;;;;;;;;19.53;52.78;96574.97;10536988;28;1913;-50
2022/10/27 06:01:28;;;;;;;;;;;;;;;19.53;52.87;96588.13;10533304;28;963;-50
2022/10/27 06:06:28;;;;;;;;;;;;;;;19.51;52.91;96588.38;10534570;28;1643;-49
2022/10/27 06:11:28;;;;;;;;;;;;;;;19.51;52.78;96580.47;10540358;28;1120;-51
2022/10/27 06:16:29;;;;;;;;;;;;;;;19.53;52.60;96590.75;10536073;28;2243;-50
2022/10/27 06:21:29;;;;;;;;;;;;;;;19.54;52.76;96597.59;10538492;28;884;-52
2022/10/27 06:26:29;;;;;;;;;;;;;;;19.51;52.66;96604.16;10537533;28;1686;-51
2022/10/27 06:31:29;;;;;;;;;;;;;;;19.52;52.56;96607.56;10532881;28;1025;-52
2022/10/27 06:36:34;;;;;;;;;;;;;;;19.51;52.54;96603.34;10531832;28;1968;-51
2022/10/27 06:41:34;;;;;;;;;;;;;;;19.49;52.60;96614.88;10539101;28;1175;-53
2022/10/27 06:46:35;;;;;;;;;;;;;;;19.50;52.66;96607.81;10530882;28;1611;-52
2022/10/27 06:51:35;;;;;;;;;;;;;;;19.53;52.63;96617.03;10538424;28;1120;-50
2022/10/27 06:56:35;;;;;;;;;;;;;;;19.53;52.40;96611.78;10533015;28;1984;-50
2022/10/27 07:01:36;;;;;;;;;;;;;;;19.52;52.50;96624.13;10537609;28;1088;-51
2022/10/27 07:06:36;;;;;;;;;;;;;;;19.51;52.41;96619.13;10536942;28;1619;-51
2022/10/27 07:11:36;;;;;;;;;;;;;;;19.54;52.56;96629.16;10537944;28;1112;-50
2022/10/27 07:16:37;;;;;;;;;;;;;;;19.53;52.52;96628.38;10539253;28;1906;-49
2022/10/27 07:21:37;;;;;;;;;;;;;;;19.55;52.35;96631.53;10539993;28;1027;-50
2022/10/27 07:26:42;;;;;;;;;;;;;;;19.55;52.27;96630.75;10532035;28;1699;-52
2022/10/27 07:31:43;;;;;;;;;;;;;;;19.56;52.43;96632.34;10537559;28;1120;-49
2022/10/27 07:36:43;;;;;;;;;;;;;;;19.54;52.57;96631.78;10534486;28;1981;-53
2022/10/27 07:41:44;;;;;;;;;;;;;;;19.54;52.62;96634.44;10536432;28;1125;-53
2022/10/27 07:46:44;;;;;;;;;;;;;;;19.57;52.46;96644.44;10535589;28;1742;-53
2022/10/27 07:51:45;;;;;;;;;;;;;;;19.57;52.59;96649.69;10536469;28;1074;-51
2022/10/27 07:56:47;;;;;;;;;;;;;;;19.56;52.47;96654.16;10527773;28;1909;-53
2022/10/27 08:01:47;;;;;;;;;;;;;;;19.54;52.53;96650.22;10531652;28;1184;-51
2022/10/27 08:06:47;;;;;;;;;;;;;;;19.55;52.64;96651.78;10527230;28;1635;-53
2022/10/27 08:11:47;;;;;;;;;;;;;;;19.55;52.55;96643.88;10535240;28;1336;-51
2022/10/27 08:16:48;;;;;;;;;;;;;;;19.54;52.43;96644.94;10534934;28;1973;-52
2022/10/27 08:21:49;;;;;;;;;;;;;;;19.53;52.57;96641.50;10535239;28;1088;-53
2022/10/27 08:26:49;;;;;;;;;;;;;;;19.53;52.37;96638.88;10527006;28;1627;-50
2022/10/27 08:31:50;;;;;;;;;;;;;;;19.52;52.54;96641.72;10533772;28;1092;-49
2022/10/27 08:36:50;;;;;;;;;;;;;;;19.51;52.39;96642.78;10532082;28;1985;-53
2022/10/27 08:42:03;;;;;;;;;;;;;;;19.55;52.54;96646.53;10534757;28;1151;-51
2022/10/27 08:47:04;;;;;;;;;;;;;;;19.55;52.43;96642.06;10532785;28;1631;-52
2022/10/27 08:52:14;;;;;;;;;;;;;;;19.59;52.42;96645.00;10535102;28;1159;-53
2022/10/27 08:57:20;;;;;;;;;;;;;;;19.56;52.34;96640.22;10509861;28;2004;-52
2022/10/27 09:02:41;;;;;;;;;;;;;;;19.55;52.49;96636.00;10535278;28;1141;-52
2022/10/27 09:07:51;;;;;;;;;;;;;;;19.53;52.53;96638.09;10540532;28;1682;-53
2022/10/27 09:13:12;;;;;;;;;;;;;;;19.51;52.69;96629.66;10541756;28;1244;-54
2022/10/27 09:18:21;;;;;;;;;;;;;;;19.54;52.55;96634.44;10534491;28;1910;-52
2022/10/27 09:23:23;;;;;;;;;;;;;;;19.51;52.72;96642.78;10541482;28;1576;-52
2022/10/27 09:28:31;;;;;;;;;;;;;;;19.52;52.68;96636.47;10533577;28;1481;-53
2022/10/27 09:33:32;;;;;;;;;;;;;;;19.51;52.54;96635.69;10540434;28;1116;-51
2022/10/27 09:38:33;;;;;;;;;;;;;;;19.55;52.61;96634.16;10540146;28;1917;-49
2022/10/27 09:43:33;;;;;;;;;;;;;;;19.55;52.40;96614.97;10537242;28;1658;-54
2022/10/27 09:48:33;;;;;;;;;;;;;;;19.55;52.72;96615.75;10539711;28;1207;-52
2022/10/27 09:53:37;;;;;;;;;;;;;;;19.55;52.67;96614.97;10536203;28;1734;-52
2022/10/27 09:59:01;;;;;;;;;;;;;;;19.57;52.46;96620.78;10531989;28;1918;-53
2022/10/27 10:04:04;;;;;;;;;;;;;;;19.56;52.78;96624.47;10534768;28;1872;-53
2022/10/27 10:09:20;;;;;;;;;;;;;;;19.56;52.80;96616.56;10534966;28;1631;-54
2022/10/27 10:14:21;;;;;;;;;;;;;;;19.56;52.61;96612.06;10540392;28;1307;-54
2022/10/27 10:19:22;;;;;;;;;;;;;;;19.58;52.79;96609.22;10527685;28;1976;-53
2022/10/27 10:24:23;;;;;;;;;;;;;;;19.59;52.82;96616.06;10520074;28;1657;-52
2022/10/27 10:29:31;;;;;;;;;;;;;;;19.60;52.87;96617.66;10533164;28;1389;-49
2022/10/27 10:34:33;;;;;;;;;;;;;;;19.60;52.81;96617.66;10538278;28;1181;-54
2022/10/27 10:39:34;;;;;;;;;;;;;;;19.61;52.51;96613.97;10536238;28;1969;-54
2022/10/27 10:44:35;;;;;;;;;;;;;;;19.60;52.71;96613.19;10536993;28;1619;-50
2022/10/27 10:49:36;;;;;;;;;;;;;;;19.60;52.92;96610.53;10533423;28;1128;-51
2022/10/27 10:54:36;;;;;;;;;;;;;;;19.60;52.98;96607.91;10536872;28;1678;-52
2022/10/27 10:59:37;;;;;;;;;;;;;;;19.61;52.80;96609.53;10529356;28;1963;-53
2022/10/27 11:04:44;;;;;;;;;;;;;;;19.65;53.05;96607.19;10537681;28;832;-54
2022/10/27 11:09:50;;;;;;;;;;;;;;;19.62;52.98;96600.56;10528673;28;1698;-53
2022/10/27 11:14:50;;;;;;;;;;;;;;;19.63;53.19;96598.75;10536423;28;1461;-50
2022/10/27 11:19:51;;;;;;;;;;;;;;;19.64;52.88;96589.81;10537347;28;1930;-53
2022/10/27 11:24:57;;;;;;;;;;;;;;;19.65;52.94;96586.94;10533958;28;1647;-50
2022/10/27 11:30:00;;;;;;;;;;;;;;;19.66;53.13;96585.88;10537018;28;1444;-48
2022/10/27 11:35:10;;;;;;;;;;;;;;;19.66;53.12;96579.84;10539831;28;1192;-54
2022/10/27 11:40:26;;;;;;;;;;;;;;;19.67;52.98;96579.59;10536126;28;1913;-53
2022/10/27 11:45:28;;;;;;;;;;;;;;;19.68;53.23;96570.66;10540728;28;1587;-52
2022/10/27 11:50:46;;;;;;;;;;;;;;;19.69;53.30;96569.63;10525677;28;1369;-53
2022/10/27 11:56:09;;;;;;;;;;;;;;;19.71;53.32;96577.25;10529308;28;1647;-51
2022/10/27 12:01:18;;;;;;;;;;;;;;;19.72;53.15;96570.97;10515858;28;1553;-51
2022/10/27 12:06:26;;;;;;;;;;;;;;;19.72;53.09;96566.47;10532548;28;1667;-51
2022/10/27 12:11:46;;;;;;;;;;;;;;;19.74;53.17;96563.63;10534643;28;1882;-50
2022/10/27 12:17:00;;;;;;;;;;;;;;;19.77;52.85;96565.75;10529004;28;1909;-52
2022/10/27 12:22:08;;;;;;;;;;;;;;;19.76;53.29;96556.28;10530010;28;1627;-51
2022/10/27 12:27:22;;;;;;;;;;;;;;;19.78;53.37;96555.00;10560316;27;1497;-49
2022/10/27 12:32:27;;;;;;;;;;;;;;;19.81;53.25;96561.56;10558773;27;1116;-52
2022/10/27 12:37:30;;;;;;;;;;;;;;;19.83;53.30;96544.50;10528037;28;1968;-51
2022/10/27 12:42:30;;;;;;;;;;;;;;;19.90;53.27;96546.94;10534964;28;1127;-51
2022/10/27 12:47:32;;;;;;;;;;;;;;;19.96;53.06;96543.28;10528057;28;1540;-53
2022/10/27 12:52:34;;;;;;;;;;;;;;;20.02;53.01;96544.94;10529746;28;1658;-49
2022/10/27 12:58:01;;;;;;;;;;;;;;;20.09;53.22;96542.91;10531490;28;1902;-50
2022/10/27 13:03:11;;;;;;;;;;;;;;;20.20;52.70;96540.09;10534146;28;1203;-51
2022/10/27 13:08:18;;;;;;;;;;;;;;;20.28;52.52;96536.22;10528234;28;1631;-49
2022/10/27 13:13:29;;;;;;;;;;;;;;;20.30;52.26;96528.84;10518857;28;1316;-52
2022/10/27 13:18:48;;;;;;;;;;;;;;;20.35;52.17;96526.25;10536543;28;1971;-51
2022/10/27 13:23:48;;;;;;;;;;;;;;;20.41;52.23;96517.34;10537440;28;1631;-53
2022/10/27 13:28:53;;;;;;;;;;;;;;;20.46;52.00;96517.41;10522175;28;1713;-49
2022/10/27 13:33:58;;;;;;;;;;;;;;;20.44;52.02;96514.22;10533367;28;1155;-50
2022/10/27 13:39:08;;;;;;;;;;;;;;;20.41;52.25;96513.91;10531742;28;1921;-51
2022/10/27 13:44:08;;;;;;;;;;;;;;;20.42;52.41;96516.31;10534959;28;1679;-53
2022/10/27 13:49:08;;;;;;;;;;;;;;;20.42;52.07;96507.63;10539224;28;1271;-51
2022/10/27 13:54:32;;;;;;;;;;;;;;;20.37;52.52;96508.38;10537493;28;1706;-53
2022/10/27 13:59:32;;;;;;;;;;;;;;;20.32;52.46;96516.22;10527816;28;1902;-50
2022/10/27 14:04:52;;;;;;;;;;;;;;;20.28;52.54;96523.84;10538863;28;1168;-51
2022/10/27 14:09:53;;;;;;;;;;;;;;;20.20;52.78;96518.25;10538536;28;1819;-52
2022/10/27 14:14:54;;;;;;;;;;;;;;;20.14;52.85;96519.22;10536054;28;1477;-53
2022/10/27 14:19:57;;;;;;;;;;;;;;;20.10;53.04;96518.16;10539668;28;1917;-50
2022/10/27 14:24:59;;;;;;;;;;;;;;;20.08;52.97;96520.25;10538581;28;1635;-50
2022/10/27 14:30:11;;;;;;;;;;;;;;;20.05;53.20;96521.53;10531349;28;1449;-53
2022/10/27 14:35:16;;;;;;;;;;;;;;;20.03;53.32;96525.47;10542285;28;1136;-51
2022/10/27 14:40:19;;;;;;;;;;;;;;;20.01;53.10;96525.69;10541367;28;1963;-52
2022/10/27 14:45:20;;;;;;;;;;;;;;;20.01;52.98;96527.56;10536438;28;1596;-50
2022/10/27 14:50:24;;;;;;;;;;;;;;;20.00;53.25;96528.59;10547872;28;1144;-51
2022/10/27 14:55:31;;;;;;;;;;;;;;;19.98;53.03;96530.69;10536192;28;1627;-51
2022/10/27 15:00:31;;;;;;;;;;;;;;;19.97;53.15;96513.31;10531701;28;1993;-53
2022/10/27 15:05:35;;;;;;;;;;;;;;;19.96;53.01;96516.97;10536625;28;1741;-53
2022/10/27 15:10:36;;;;;;;;;;;;;;;19.95;53.16;96520.66;10538166;28;1088;-52
2022/10/27 15:15:39;;;;;;;;;;;;;;;19.93;52.96;96518.28;10536056;28;1647;-53
2022/10/27 15:20:40;;;;;;;;;;;;;;;19.93;53.08;96515.63;10536112;28;1905;-51
2022/10/27 15:25:40;;;;;;;;;;;;;;;19.91;53.21;96519.56;10535570;28;1642;-50
2022/10/27 15:30:40;;;;;;;;;;;;;;;19.90;53.02;96518.78;10530486;28;1386;-53
2022/10/27 15:35:42;;;;;;;;;;;;;;;19.90;53.23;96523.25;10533449;28;1445;-52
2022/10/27 15:40:43;;;;;;;;;;;;;;;19.89;53.05;96527.72;10536349;28;1976;-51
2022/10/27 15:45:44;;;;;;;;;;;;;;;19.87;53.04;96518.47;10528066;28;1714;-52
2022/10/27 15:50:44;;;;;;;;;;;;;;;19.88;52.92;96525.34;10535406;28;884;-51
2022/10/27 15:55:55;;;;;;;;;;;;;;;19.86;53.14;96522.97;10533761;28;1729;-51
2022/10/27 16:00:59;;;;;;;;;;;;;;;19.87;53.06;96521.09;10529065;28;1909;-50
2022/10/27 16:06:19;;;;;;;;;;;;;;;19.85;53.23;96529.25;10535887;28;998;-53
2022/10/27 16:11:21;;;;;;;;;;;;;;;19.85;53.25;96536.34;10535861;28;1020;-51
2022/10/27 16:16:21;;;;;;;;;;;;;;;19.85;53.21;96542.41;10533228;28;1906;-52
2022/10/27 16:21:22;;;;;;;;;;;;;;;19.84;53.01;96543.47;10538554;28;1178;-50
2022/10/27 16:26:24;;;;;;;;;;;;;;;19.84;53.18;96532.94;10530183;28;1658;-52
2022/10/27 16:31:27;;;;;;;;;;;;;;;19.83;53.08;96527.91;10532940;28;1607;-49
2022/10/27 16:36:27;;;;;;;;;;;;;;;19.83;53.26;96530.53;10532314;28;1910;-50
2022/10/27 16:41:27;;;;;;;;;;;;;;;19.81;53.30;96535.25;10535127;28;1136;-48
2022/10/27 16:46:28;;;;;;;;;;;;;;;19.83;53.04;96535.81;10531113;28;1655;-50
2022/10/27 16:51:29;;;;;;;;;;;;;;;19.81;53.04;96543.97;10534014;28;1119;-50
2022/10/27 16:56:29;;;;;;;;;;;;;;;19.84;53.60;96545.31;10512539;28;2041;-51
2022/10/27 17:01:29;;;;;;;;;;;;;;;19.85;54.02;96541.59;10530191;28;1703;-53
2022/10/27 17:06:30;;;;;;;;;;;;;;;19.88;54.45;96535.88;10522606;28;1993;-53
2022/10/27 17:11:30;;;;;;;;;;;;;;;19.89;54.93;96543.50;10527420;28;1720;-53
2022/10/27 17:16:32;;;;;;;;;;;;;;;19.90;55.04;96550.38;10513593;28;1913;-52
2022/10/27 17:21:34;;;;;;;;;;;;;;;19.90;54.95;96546.94;10540140;28;1173;-50
2022/10/27 17:26:34;;;;;;;;;;;;;;;19.91;55.19;96548.50;10529508;28;1497;-52
2022/10/27 17:31:34;;;;;;;;;;;;;;;19.90;55.00;96550.38;10533473;28;1866;-50
2022/10/27 17:36:34;;;;;;;;;;;;;;;19.92;55.33;96550.09;10541570;28;1985;-50
2022/10/27 17:41:35;;;;;;;;;;;;;;;19.91;55.15;96551.94;10543704;28;1127;-51
2022/10/27 17:46:35;;;;;;;;;;;;;;;19.92;55.48;96552.75;10538557;28;1421;-53
2022/10/27 17:51:36;;;;;;;;;;;;;;;19.90;55.25;96558.25;10543451;28;979;-50
2022/10/27 17:56:36;;;;;;;;;;;;;;;19.92;55.29;96569.31;10515426;28;1922;-51
2022/10/27 18:01:38;;;;;;;;;;;;;;;19.91;55.25;96567.72;10548583;27;1725;-52
2022/10/27 18:06:39;;;;;;;;;;;;;;;19.92;55.18;96579.06;10515098;28;1587;-53
2022/10/27 18:11:40;;;;;;;;;;;;;;;19.92;55.29;96577.22;10528092;28;1144;-48
2022/10/27 18:16:41;;;;;;;;;;;;;;;19.92;55.01;96573.78;10532312;28;1969;-51
2022/10/27 18:21:42;;;;;;;;;;;;;;;19.92;55.07;96579.06;10526960;28;1227;-50
2022/10/27 18:26:44;;;;;;;;;;;;;;;19.91;55.07;96573.00;10528104;28;1768;-49
2022/10/27 18:31:45;;;;;;;;;;;;;;;19.91;55.24;96577.44;10525248;28;1720;-51
2022/10/27 18:36:45;;;;;;;;;;;;;;;19.91;55.19;96574.81;10529827;28;1949;-54
2022/10/27 18:41:47;;;;;;;;;;;;;;;19.90;55.25;96584.56;10521833;28;1172;-50
2022/10/27 18:46:47;;;;;;;;;;;;;;;19.89;55.07;96575.06;10530174;28;1480;-54
2022/10/27 18:51:48;;;;;;;;;;;;;;;19.90;54.97;96581.13;10524889;28;1363;-50
2022/10/27 18:56:48;;;;;;;;;;;;;;;19.91;55.25;96577.44;10521868;28;1965;-51
2022/10/27 19:01:51;;;;;;;;;;;;;;;19.91;55.18;96569.56;10525681;28;1674;-48
2022/10/27 19:06:52;;;;;;;;;;;;;;;19.91;55.06;96564.28;10531559;28;1806;-51
2022/10/27 19:11:52;;;;;;;;;;;;;;;19.91;54.96;96561.66;10528332;28;1198;-52
2022/10/27 19:16:58;;;;;;;;;;;;;;;19.90;54.84;96560.09;10527265;28;1984;-50
2022/10/27 19:21:58;;;;;;;;;;;;;;;19.89;55.04;96558.47;10538410;28;1856;-49
2022/10/27 19:26:58;;;;;;;;;;;;;;;19.90;54.97;96566.16;10524352;28;1468;-52
2022/10/27 19:31:59;;;;;;;;;;;;;;;19.91;55.04;96572.19;10535965;28;1202;-54
2022/10/27 19:36:59;;;;;;;;;;;;;;;19.90;54.84;96570.63;10528462;28;1901;-51
2022/10/27 19:41:59;;;;;;;;;;;;;;;19.88;54.71;96562.19;10523500;28;1891;-51
2022/10/27 19:47:00;;;;;;;;;;;;;;;19.88;54.85;96570.06;10533588;28;1517;-51
2022/10/27 19:52:01;;;;;;;;;;;;;;;19.89;54.86;96566.38;10533941;28;1504;-50
2022/10/27 19:57:01;;;;;;;;;;;;;;;19.88;54.47;96557.72;10533264;28;1977;-54
2022/10/27 20:02:02;;;;;;;;;;;;;;;19.88;54.56;96564.81;10536136;28;1763;-53
2022/10/27 20:07:05;;;;;;;;;;;;;;;19.88;54.52;96562.19;10504297;28;1905;-53
2022/10/27 20:12:05;;;;;;;;;;;;;;;19.86;54.57;96556.38;10537528;28;1167;-49
2022/10/27 20:17:06;;;;;;;;;;;;;;;19.87;54.35;96555.31;10535365;28;2037;-52
2022/10/27 20:22:06;;;;;;;;;;;;;;;19.85;54.56;96544.25;10535672;28;1014;-50
2022/10/27 20:27:06;;;;;;;;;;;;;;;19.86;54.39;96548.47;10526824;28;1718;-51
2022/10/27 20:32:06;;;;;;;;;;;;;;;19.85;54.46;96552.13;10535379;28;1121;-53
2022/10/27 20:37:07;;;;;;;;;;;;;;;19.85;54.44;96552.13;10531771;28;1977;-51
2022/10/27 20:42:07;;;;;;;;;;;;;;;19.85;54.46;96546.88;10538786;28;1300;-51
2022/10/27 20:47:07;;;;;;;;;;;;;;;19.83;54.12;96549.75;10538229;28;1428;-50
2022/10/27 20:52:08;;;;;;;;;;;;;;;19.85;54.36;96552.13;10538707;28;1134;-50
2022/10/27 20:57:08;;;;;;;;;;;;;;;19.83;54.22;96547.13;10533269;28;1987;-48
2022/10/27 21:02:08;;;;;;;;;;;;;;;19.84;54.07;96548.72;10542836;28;1032;-52
2022/10/27 21:07:09;;;;;;;;;;;;;;;19.83;54.09;96552.38;10536901;28;1615;-51
2022/10/27 21:12:09;;;;;;;;;;;;;;;19.83;54.39;96564.75;10542908;28;1140;-50
2022/10/27 21:17:09;;;;;;;;;;;;;;;19.83;54.14;96560.28;10539685;28;1918;-50
2022/10/27 21:22:09;;;;;;;;;;;;;;;19.84;54.29;96561.09;10541181;28;1659;-50
2022/10/27 21:27:10;;;;;;;;;;;;;;;19.84;54.10;96555.81;10539706;28;1540;-49
2022/10/27 21:32:10;;;;;;;;;;;;;;;19.84;54.17;96550.56;10541551;28;1140;-54
2022/10/27 21:37:10;;;;;;;;;;;;;;;19.82;54.22;96557.91;10537119;28;1971;-49
2022/10/27 21:42:11;;;;;;;;;;;;;;;19.82;54.15;96556.09;10540303;28;1166;-49
2022/10/27 21:47:11;;;;;;;;;;;;;;;19.83;54.20;96556.84;10533164;28;1576;-51
2022/10/27 21:52:11;;;;;;;;;;;;;;;19.82;54.14;96560.53;10541554;28;793;-49
2022/10/27 21:57:11;;;;;;;;;;;;;;;19.82;54.19;96550.81;10539314;28;1965;-54
2022/10/27 22:02:12;;;;;;;;;;;;;;;19.82;53.98;96552.66;10540817;28;1192;-48
2022/10/27 22:07:16;;;;;;;;;;;;;;;19.83;53.82;96585.78;10540708;28;1690;-49
2022/10/27 22:12:26;;;;;;;;;;;;;;;19.82;53.93;96574.50;10534066;28;1034;-53
2022/10/27 22:17:27;;;;;;;;;;;;;;;19.82;54.00;96581.59;10537584;28;1905;-52
2022/10/27 22:22:28;;;;;;;;;;;;;;;19.82;53.86;96573.69;10541633;28;1135;-51
2022/10/27 22:27:29;;;;;;;;;;;;;;;19.81;53.79;96572.09;10536383;28;1615;-46
2022/10/27 22:32:29;;;;;;;;;;;;;;;19.80;54.02;96571.31;10542148;28;1080;-50
2022/10/27 22:37:29;;;;;;;;;;;;;;;19.82;53.80;96563.16;10542503;28;1907;-50
2022/10/27 22:42:29;;;;;;;;;;;;;;;19.81;54.07;96561.56;10543543;28;1100;-48
2022/10/27 22:47:30;;;;;;;;;;;;;;;19.82;54.00;96569.22;10532129;28;1619;-50
2022/10/27 22:52:30;;;;;;;;;;;;;;;19.80;53.68;96566.06;10540283;28;1100;-50
2022/10/27 22:57:35;;;;;;;;;;;;;;;19.80;53.77;96568.69;10529968;28;1975;-49
2022/10/27 23:02:35;;;;;;;;;;;;;;;19.80;53.81;96573.16;10539797;28;1135;-48
2022/10/27 23:07:41;;;;;;;;;;;;;;;19.81;53.77;96582.63;10532472;28;1760;-53
2022/10/27 23:12:42;;;;;;;;;;;;;;;19.80;53.81;96588.94;10541167;28;1141;-51
2022/10/27 23:17:42;;;;;;;;;;;;;;;19.81;53.91;96590.50;10536747;28;1914;-50
2022/10/27 23:22:42;;;;;;;;;;;;;;;19.79;53.93;96584.69;10540174;28;1607;-48
2022/10/27 23:27:45;;;;;;;;;;;;;;;19.79;53.94;96579.44;10536277;28;1429;-52
2022/10/27 23:32:45;;;;;;;;;;;;;;;19.80;53.89;96581.03;10543413;28;1089;-52
2022/10/27 23:37:45;;;;;;;;;;;;;;;19.80;53.94;96575.78;10540225;28;2030;-52
2022/10/27 23:42:50;;;;;;;;;;;;;;;19.79;53.92;96576.81;10538602;28;977;-49
2022/10/27 23:47:51;;;;;;;;;;;;;;;19.81;53.95;96569.47;10535875;28;1894;-54
2022/10/27 23:52:51;;;;;;;;;;;;;;;19.78;53.92;96568.16;10533825;28;1624;-50
2022/10/27 23:57:51;;;;;;;;;;;;;;;19.79;53.70;96576.81;10535607;28;1934;-52
